sensor_id;sensor_type;location;lat;lon;timestamp;pressure;altitude;pressure_sealevel;temperature;humidity
63916;BME280;50094;51.356;-0.196;2022-10-16T00:00:54;99844.53;;;25.46;32.17
63916;BME280;50094;51.356;-0.196;2022-10-16T00:03:21;99846.71;;;25.49;32.24
63916;BME280;50094;51.356;-0.196;2022-10-16T00:05:48;99849.33;;;25.51;32.13
63916;BME280;50094;51.356;-0.196;2022-10-16T00:08:15;99852.72;;;25.46;32.12
63916;BME280;50094;51.356;-0.196;2022-10-16T00:10:42;99856.01;;;25.47;32.16
63916;BME280;50094;51.356;-0.196;2022-10-16T00:13:09;99856.31;;;25.49;32.13
63916;BME280;50094;51.356;-0.196;2022-10-16T00:15:37;99852.18;;;25.37;32.04
63916;BME280;50094;51.356;-0.196;2022-10-16T00:18:04;99851.03;;;25.57;32.08
63916;BME280;50094;51.356;-0.196;2022-10-16T00:20:34;99848.12;;;25.52;32.05
63916;BME280;50094;51.356;-0.196;2022-10-16T00:23:01;99846.72;;;25.26;32.12
63916;BME280;50094;51.356;-0.196;2022-10-16T00:25:28;99846.35;;;25.74;32.12
63916;BME280;50094;51.356;-0.196;2022-10-16T00:27:55;99854.01;;;25.52;32.14
63916;BME280;50094;51.356;-0.196;2022-10-16T00:30:23;99856.76;;;25.72;32.07
63916;BME280;50094;51.356;-0.196;2022-10-16T00:32:50;99855.33;;;25.48;32.10
63916;BME280;50094;51.356;-0.196;2022-10-16T00:35:17;99859.13;;;25.44;32.30
63916;BME280;50094;51.356;-0.196;2022-10-16T00:37:44;99860.76;;;25.39;32.18
63916;BME280;50094;51.356;-0.196;2022-10-16T00:40:12;99866.54;;;25.43;32.15
63916;BME280;50094;51.356;-0.196;2022-10-16T00:42:39;99866.13;;;25.47;32.14
63916;BME280;50094;51.356;-0.196;2022-10-16T00:45:09;99864.31;;;25.22;32.13
63916;BME280;50094;51.356;-0.196;2022-10-16T00:47:39;99867.48;;;25.46;32.05
63916;BME280;50094;51.356;-0.196;2022-10-16T00:50:09;99869.64;;;25.19;32.19
63916;BME280;50094;51.356;-0.196;2022-10-16T00:52:43;99872.02;;;25.40;32.13
63916;BME280;50094;51.356;-0.196;2022-10-16T00:55:11;99874.10;;;25.43;32.07
63916;BME280;50094;51.356;-0.196;2022-10-16T00:57:39;99873.83;;;25.43;32.15
63916;BME280;50094;51.356;-0.196;2022-10-16T01:00:09;99879.08;;;25.40;32.13
63916;BME280;50094;51.356;-0.196;2022-10-16T01:02:36;99875.09;;;25.43;32.12
63916;BME280;50094;51.356;-0.196;2022-10-16T01:05:05;99878.35;;;25.68;32.06
63916;BME280;50094;51.356;-0.196;2022-10-16T01:07:42;99876.79;;;25.44;32.02
63916;BME280;50094;51.356;-0.196;2022-10-16T01:10:22;99872.42;;;25.16;32.08
63916;BME280;50094;51.356;-0.196;2022-10-16T01:12:56;99877.99;;;25.50;32.06
63916;BME280;50094;51.356;-0.196;2022-10-16T01:15:27;99883.89;;;25.52;32.03
63916;BME280;50094;51.356;-0.196;2022-10-16T01:18:00;99889.33;;;25.48;32.04
63916;BME280;50094;51.356;-0.196;2022-10-16T01:20:31;99885.67;;;25.20;32.05
63916;BME280;50094;51.356;-0.196;2022-10-16T01:23:07;99885.85;;;25.47;32.00
63916;BME280;50094;51.356;-0.196;2022-10-16T01:25:49;99886.37;;;25.70;32.03
63916;BME280;50094;51.356;-0.196;2022-10-16T01:28:22;99891.73;;;25.70;32.02
63916;BME280;50094;51.356;-0.196;2022-10-16T01:30:52;99892.37;;;25.45;31.99
63916;BME280;50094;51.356;-0.196;2022-10-16T01:33:26;99895.13;;;25.70;32.02
63916;BME280;50094;51.356;-0.196;2022-10-16T01:35:59;99896.66;;;25.29;31.93
63916;BME280;50094;51.356;-0.196;2022-10-16T01:38:31;99895.83;;;25.22;31.96
63916;BME280;50094;51.356;-0.196;2022-10-16T01:41:02;99896.10;;;25.49;31.97
63916;BME280;50094;51.356;-0.196;2022-10-16T01:43:34;99899.39;;;25.45;31.96
63916;BME280;50094;51.356;-0.196;2022-10-16T01:46:03;99907.39;;;25.46;31.96
63916;BME280;50094;51.356;-0.196;2022-10-16T01:48:33;99910.19;;;25.48;31.94
63916;BME280;50094;51.356;-0.196;2022-10-16T01:51:05;99909.93;;;25.53;32.07
63916;BME280;50094;51.356;-0.196;2022-10-16T01:53:33;99915.22;;;25.49;32.12
63916;BME280;50094;51.356;-0.196;2022-10-16T01:56:01;99920.51;;;25.24;32.29
63916;BME280;50094;51.356;-0.196;2022-10-16T01:58:30;99899.43;;;25.41;32.23
63916;BME280;50094;51.356;-0.196;2022-10-16T02:01:01;99887.96;;;25.37;32.22
63916;BME280;50094;51.356;-0.196;2022-10-16T02:03:29;99906.50;;;25.42;32.23
63916;BME280;50094;51.356;-0.196;2022-10-16T02:05:58;99912.01;;;25.17;32.28
63916;BME280;50094;51.356;-0.196;2022-10-16T02:08:28;99906.72;;;25.45;32.26
63916;BME280;50094;51.356;-0.196;2022-10-16T02:10:57;99909.06;;;25.40;32.17
63916;BME280;50094;51.356;-0.196;2022-10-16T02:13:29;99908.93;;;25.43;32.18
63916;BME280;50094;51.356;-0.196;2022-10-16T02:15:57;99916.60;;;25.43;32.18
63916;BME280;50094;51.356;-0.196;2022-10-16T02:18:25;99919.47;;;25.47;32.27
63916;BME280;50094;51.356;-0.196;2022-10-16T02:20:56;99925.71;;;25.46;32.16
63916;BME280;50094;51.356;-0.196;2022-10-16T02:23:29;99925.48;;;25.54;32.08
63916;BME280;50094;51.356;-0.196;2022-10-16T02:26:03;99930.08;;;25.46;32.10
63916;BME280;50094;51.356;-0.196;2022-10-16T02:28:37;99932.40;;;25.40;32.15
63916;BME280;50094;51.356;-0.196;2022-10-16T02:31:10;99938.92;;;25.41;32.09
63916;BME280;50094;51.356;-0.196;2022-10-16T02:33:40;99949.16;;;25.43;32.08
63916;BME280;50094;51.356;-0.196;2022-10-16T02:36:09;99956.09;;;25.37;32.10
63916;BME280;50094;51.356;-0.196;2022-10-16T02:38:39;99959.88;;;25.38;32.08
63916;BME280;50094;51.356;-0.196;2022-10-16T02:41:07;99962.60;;;25.45;32.02
63916;BME280;50094;51.356;-0.196;2022-10-16T02:43:34;99957.91;;;25.18;32.03
63916;BME280;50094;51.356;-0.196;2022-10-16T02:46:02;99959.86;;;25.46;31.93
63916;BME280;50094;51.356;-0.196;2022-10-16T02:48:29;99964.17;;;25.71;32.03
63916;BME280;50094;51.356;-0.196;2022-10-16T02:50:57;99966.96;;;25.24;31.92
63916;BME280;50094;51.356;-0.196;2022-10-16T02:53:24;99969.96;;;25.47;31.94
63916;BME280;50094;51.356;-0.196;2022-10-16T02:55:51;99967.65;;;25.44;31.94
63916;BME280;50094;51.356;-0.196;2022-10-16T02:58:19;99972.72;;;25.49;31.69
63916;BME280;50094;51.356;-0.196;2022-10-16T03:00:46;99976.09;;;25.72;31.68
63916;BME280;50094;51.356;-0.196;2022-10-16T03:03:13;99975.89;;;25.43;31.74
63916;BME280;50094;51.356;-0.196;2022-10-16T03:05:43;99977.74;;;25.42;31.67
63916;BME280;50094;51.356;-0.196;2022-10-16T03:08:10;99976.22;;;25.55;31.76
63916;BME280;50094;51.356;-0.196;2022-10-16T03:10:38;99976.94;;;25.46;31.72
63916;BME280;50094;51.356;-0.196;2022-10-16T03:13:05;99977.71;;;25.43;31.75
63916;BME280;50094;51.356;-0.196;2022-10-16T03:15:33;99977.25;;;25.36;31.79
63916;BME280;50094;51.356;-0.196;2022-10-16T03:18:01;99979.34;;;25.65;31.73
63916;BME280;50094;51.356;-0.196;2022-10-16T03:20:27;99982.15;;;25.34;31.77
63916;BME280;50094;51.356;-0.196;2022-10-16T03:22:55;99983.90;;;25.44;31.64
63916;BME280;50094;51.356;-0.196;2022-10-16T03:25:23;99982.26;;;25.58;31.71
63916;BME280;50094;51.356;-0.196;2022-10-16T03:27:50;99986.16;;;25.27;31.74
63916;BME280;50094;51.356;-0.196;2022-10-16T03:30:17;99988.95;;;25.57;31.68
63916;BME280;50094;51.356;-0.196;2022-10-16T03:32:45;99989.79;;;25.29;31.70
63916;BME280;50094;51.356;-0.196;2022-10-16T03:35:12;99996.50;;;25.55;31.71
63916;BME280;50094;51.356;-0.196;2022-10-16T03:37:40;100000.15;;;25.49;31.72
63916;BME280;50094;51.356;-0.196;2022-10-16T03:40:08;100006.11;;;25.57;31.71
63916;BME280;50094;51.356;-0.196;2022-10-16T03:42:35;100009.42;;;25.32;31.73
63916;BME280;50094;51.356;-0.196;2022-10-16T03:45:03;100012.28;;;25.29;31.74
63916;BME280;50094;51.356;-0.196;2022-10-16T03:47:31;100012.23;;;25.56;31.69
63916;BME280;50094;51.356;-0.196;2022-10-16T03:49:59;100010.61;;;25.29;31.71
63916;BME280;50094;51.356;-0.196;2022-10-16T03:52:26;100014.97;;;25.26;31.68
63916;BME280;50094;51.356;-0.196;2022-10-16T03:54:53;100012.99;;;25.22;31.72
63916;BME280;50094;51.356;-0.196;2022-10-16T03:57:21;100009.51;;;25.30;31.73
63916;BME280;50094;51.356;-0.196;2022-10-16T03:59:48;100017.04;;;25.28;31.71
63916;BME280;50094;51.356;-0.196;2022-10-16T04:02:16;100029.54;;;25.26;31.66
63916;BME280;50094;51.356;-0.196;2022-10-16T04:04:42;100030.27;;;25.55;31.66
63916;BME280;50094;51.356;-0.196;2022-10-16T04:07:10;100038.60;;;25.61;31.61
63916;BME280;50094;51.356;-0.196;2022-10-16T04:09:37;100038.32;;;25.30;31.62
63916;BME280;50094;51.356;-0.196;2022-10-16T04:12:04;100044.03;;;25.32;31.59
63916;BME280;50094;51.356;-0.196;2022-10-16T04:14:32;100047.99;;;25.40;31.50
63916;BME280;50094;51.356;-0.196;2022-10-16T04:16:58;100051.24;;;25.61;31.53
63916;BME280;50094;51.356;-0.196;2022-10-16T04:19:25;100057.21;;;25.17;31.49
63916;BME280;50094;51.356;-0.196;2022-10-16T04:21:52;100059.67;;;25.37;31.58
63916;BME280;50094;51.356;-0.196;2022-10-16T04:24:19;100062.89;;;25.37;31.50
63916;BME280;50094;51.356;-0.196;2022-10-16T04:26:46;100067.86;;;25.38;31.50
63916;BME280;50094;51.356;-0.196;2022-10-16T04:29:13;100072.41;;;25.40;31.52
63916;BME280;50094;51.356;-0.196;2022-10-16T04:31:40;100078.72;;;25.19;31.49
63916;BME280;50094;51.356;-0.196;2022-10-16T04:34:07;100083.54;;;25.43;31.49
63916;BME280;50094;51.356;-0.196;2022-10-16T04:36:34;100087.12;;;25.17;31.49
63916;BME280;50094;51.356;-0.196;2022-10-16T04:39:01;100087.58;;;25.38;31.47
63916;BME280;50094;51.356;-0.196;2022-10-16T04:41:28;100096.50;;;25.28;31.52
63916;BME280;50094;51.356;-0.196;2022-10-16T04:43:55;100102.18;;;25.26;31.56
63916;BME280;50094;51.356;-0.196;2022-10-16T04:46:22;100112.23;;;25.29;31.57
63916;BME280;50094;51.356;-0.196;2022-10-16T04:48:49;100118.74;;;25.56;31.55
63916;BME280;50094;51.356;-0.196;2022-10-16T04:51:17;100116.62;;;25.28;31.56
63916;BME280;50094;51.356;-0.196;2022-10-16T04:53:44;100126.25;;;25.35;31.49
63916;BME280;50094;51.356;-0.196;2022-10-16T04:56:12;100126.14;;;25.14;31.46
63916;BME280;50094;51.356;-0.196;2022-10-16T04:58:39;100133.87;;;25.71;31.38
63916;BME280;50094;51.356;-0.196;2022-10-16T05:01:06;100142.29;;;25.40;31.41
63916;BME280;50094;51.356;-0.196;2022-10-16T05:03:34;100143.83;;;25.23;31.33
63916;BME280;50094;51.356;-0.196;2022-10-16T05:06:01;100156.49;;;25.36;31.37
63916;BME280;50094;51.356;-0.196;2022-10-16T05:08:28;100162.59;;;25.54;31.40
63916;BME280;50094;51.356;-0.196;2022-10-16T05:10:55;100165.86;;;25.28;31.39
63916;BME280;50094;51.356;-0.196;2022-10-16T05:13:22;100169.90;;;25.54;31.39
63916;BME280;50094;51.356;-0.196;2022-10-16T05:15:49;100170.48;;;25.27;31.44
63916;BME280;50094;51.356;-0.196;2022-10-16T05:18:16;100175.09;;;25.34;31.34
63916;BME280;50094;51.356;-0.196;2022-10-16T05:20:44;100172.19;;;25.34;31.33
63916;BME280;50094;51.356;-0.196;2022-10-16T05:23:11;100170.96;;;25.30;31.36
63916;BME280;50094;51.356;-0.196;2022-10-16T05:25:38;100170.86;;;25.08;31.32
63916;BME280;50094;51.356;-0.196;2022-10-16T05:28:06;100169.27;;;25.29;31.30
63916;BME280;50094;51.356;-0.196;2022-10-16T05:30:32;100174.81;;;25.07;31.31
63916;BME280;50094;51.356;-0.196;2022-10-16T05:32:59;100181.73;;;25.54;31.34
63916;BME280;50094;51.356;-0.196;2022-10-16T05:35:27;100182.92;;;25.26;31.35
63916;BME280;50094;51.356;-0.196;2022-10-16T05:37:54;100184.71;;;25.25;31.34
63916;BME280;50094;51.356;-0.196;2022-10-16T05:40:21;100187.78;;;25.34;31.25
63916;BME280;50094;51.356;-0.196;2022-10-16T05:42:48;100186.83;;;25.30;31.29
63916;BME280;50094;51.356;-0.196;2022-10-16T05:45:16;100196.16;;;25.27;31.28
63916;BME280;50094;51.356;-0.196;2022-10-16T05:47:43;100199.26;;;25.34;31.28
63916;BME280;50094;51.356;-0.196;2022-10-16T05:50:11;100203.97;;;25.30;31.21
63916;BME280;50094;51.356;-0.196;2022-10-16T05:52:38;100201.20;;;25.54;31.18
63916;BME280;50094;51.356;-0.196;2022-10-16T05:55:06;100204.54;;;25.50;31.22
63916;BME280;50094;51.356;-0.196;2022-10-16T05:57:33;100207.69;;;25.17;31.27
63916;BME280;50094;51.356;-0.196;2022-10-16T06:00:00;100212.83;;;25.18;31.24
63916;BME280;50094;51.356;-0.196;2022-10-16T06:02:27;100217.71;;;25.45;31.23
63916;BME280;50094;51.356;-0.196;2022-10-16T06:04:54;100215.58;;;25.16;31.23
63916;BME280;50094;51.356;-0.196;2022-10-16T06:07:22;100219.70;;;25.23;31.17
63916;BME280;50094;51.356;-0.196;2022-10-16T06:09:50;100220.30;;;25.31;31.12
63916;BME280;50094;51.356;-0.196;2022-10-16T06:12:17;100226.09;;;25.27;31.15
63916;BME280;50094;51.356;-0.196;2022-10-16T06:14:45;100225.45;;;25.29;31.10
63916;BME280;50094;51.356;-0.196;2022-10-16T06:17:13;100227.60;;;25.56;31.12
63916;BME280;50094;51.356;-0.196;2022-10-16T06:19:40;100233.14;;;25.07;31.12
63916;BME280;50094;51.356;-0.196;2022-10-16T06:22:07;100234.84;;;25.03;31.15
63916;BME280;50094;51.356;-0.196;2022-10-16T06:24:35;100246.46;;;24.98;31.27
63916;BME280;50094;51.356;-0.196;2022-10-16T06:27:03;100239.25;;;25.25;31.25
63916;BME280;50094;51.356;-0.196;2022-10-16T06:29:30;100243.11;;;25.26;31.23
63916;BME280;50094;51.356;-0.196;2022-10-16T06:31:56;100242.95;;;25.40;31.30
63916;BME280;50094;51.356;-0.196;2022-10-16T06:34:23;100249.51;;;25.22;31.22
63916;BME280;50094;51.356;-0.196;2022-10-16T06:36:51;100252.53;;;25.02;31.23
63916;BME280;50094;51.356;-0.196;2022-10-16T06:39:18;100252.02;;;25.20;31.22
63916;BME280;50094;51.356;-0.196;2022-10-16T06:41:45;100252.66;;;25.44;31.20
63916;BME280;50094;51.356;-0.196;2022-10-16T06:44:12;100256.53;;;24.96;31.18
63916;BME280;50094;51.356;-0.196;2022-10-16T06:46:40;100259.70;;;25.43;31.33
63916;BME280;50094;51.356;-0.196;2022-10-16T06:49:07;100262.76;;;25.18;31.25
63916;BME280;50094;51.356;-0.196;2022-10-16T06:51:35;100265.48;;;25.44;31.21
63916;BME280;50094;51.356;-0.196;2022-10-16T06:54:02;100270.35;;;24.99;31.25
63916;BME280;50094;51.356;-0.196;2022-10-16T06:56:31;100272.09;;;25.17;31.22
63916;BME280;50094;51.356;-0.196;2022-10-16T06:58:59;100276.74;;;25.44;31.20
63916;BME280;50094;51.356;-0.196;2022-10-16T07:01:27;100285.91;;;25.37;31.24
63916;BME280;50094;51.356;-0.196;2022-10-16T07:03:54;100288.75;;;25.13;31.21
63916;BME280;50094;51.356;-0.196;2022-10-16T07:06:24;100296.89;;;25.45;31.17
63916;BME280;50094;51.356;-0.196;2022-10-16T07:08:51;100300.35;;;25.42;31.15
63916;BME280;50094;51.356;-0.196;2022-10-16T07:11:20;100305.77;;;25.10;31.16
63916;BME280;50094;51.356;-0.196;2022-10-16T07:13:49;100312.85;;;25.42;31.15
63916;BME280;50094;51.356;-0.196;2022-10-16T07:16:18;100317.68;;;25.43;31.12
63916;BME280;50094;51.356;-0.196;2022-10-16T07:18:46;100319.17;;;25.14;31.12
63916;BME280;50094;51.356;-0.196;2022-10-16T07:21:16;100320.21;;;25.45;31.11
63916;BME280;50094;51.356;-0.196;2022-10-16T07:23:43;100319.58;;;25.19;31.14
63916;BME280;50094;51.356;-0.196;2022-10-16T07:26:10;100323.20;;;25.43;31.14
63916;BME280;50094;51.356;-0.196;2022-10-16T07:28:38;100331.31;;;25.14;31.18
63916;BME280;50094;51.356;-0.196;2022-10-16T07:31:07;100337.59;;;25.14;31.14
63916;BME280;50094;51.356;-0.196;2022-10-16T07:33:35;100340.23;;;25.45;31.09
63916;BME280;50094;51.356;-0.196;2022-10-16T07:36:03;100347.78;;;25.03;31.06
63916;BME280;50094;51.356;-0.196;2022-10-16T07:38:30;100351.61;;;25.07;31.04
63916;BME280;50094;51.356;-0.196;2022-10-16T07:40:58;100353.20;;;25.29;31.09
63916;BME280;50094;51.356;-0.196;2022-10-16T07:43:25;100357.05;;;25.28;31.09
63916;BME280;50094;51.356;-0.196;2022-10-16T07:45:53;100357.89;;;25.50;31.14
63916;BME280;50094;51.356;-0.196;2022-10-16T07:48:22;100358.89;;;25.36;31.05
63916;BME280;50094;51.356;-0.196;2022-10-16T07:50:50;100366.86;;;25.31;31.09
63916;BME280;50094;51.356;-0.196;2022-10-16T07:53:17;100371.68;;;25.38;31.03
63916;BME280;50094;51.356;-0.196;2022-10-16T07:55:44;100374.42;;;25.11;31.09
63916;BME280;50094;51.356;-0.196;2022-10-16T07:58:11;100375.54;;;25.37;31.03
63916;BME280;50094;51.356;-0.196;2022-10-16T08:00:38;100376.15;;;25.36;31.07
63916;BME280;50094;51.356;-0.196;2022-10-16T08:03:05;100376.09;;;25.28;31.13
63916;BME280;50094;51.356;-0.196;2022-10-16T08:05:33;100382.75;;;25.33;31.10
63916;BME280;50094;51.356;-0.196;2022-10-16T08:08:00;100386.21;;;25.32;31.13
63916;BME280;50094;51.356;-0.196;2022-10-16T08:10:29;100388.47;;;25.29;31.16
63916;BME280;50094;51.356;-0.196;2022-10-16T08:12:56;100398.81;;;25.04;31.21
63916;BME280;50094;51.356;-0.196;2022-10-16T08:15:23;100402.45;;;25.57;31.19
63916;BME280;50094;51.356;-0.196;2022-10-16T08:17:59;100411.56;;;25.55;31.22
63916;BME280;50094;51.356;-0.196;2022-10-16T08:20:27;100414.06;;;25.56;31.25
63916;BME280;50094;51.356;-0.196;2022-10-16T08:22:55;100417.63;;;25.07;31.30
63916;BME280;50094;51.356;-0.196;2022-10-16T08:25:24;100417.56;;;25.63;31.27
63916;BME280;50094;51.356;-0.196;2022-10-16T08:27:51;100418.83;;;25.38;31.35
63916;BME280;50094;51.356;-0.196;2022-10-16T08:30:20;100420.00;;;25.44;31.31
63916;BME280;50094;51.356;-0.196;2022-10-16T08:32:48;100423.81;;;25.47;31.31
63916;BME280;50094;51.356;-0.196;2022-10-16T08:35:16;100424.46;;;25.50;31.33
63916;BME280;50094;51.356;-0.196;2022-10-16T08:37:43;100426.72;;;25.30;31.40
63916;BME280;50094;51.356;-0.196;2022-10-16T08:40:18;100421.93;;;25.39;31.38
63916;BME280;50094;51.356;-0.196;2022-10-16T08:42:56;100423.74;;;25.92;31.38
63916;BME280;50094;51.356;-0.196;2022-10-16T08:45:34;100431.17;;;25.51;31.35
63916;BME280;50094;51.356;-0.196;2022-10-16T08:48:12;100439.42;;;25.52;31.35
63916;BME280;50094;51.356;-0.196;2022-10-16T08:50:42;100444.44;;;25.53;31.39
63916;BME280;50094;51.356;-0.196;2022-10-16T08:53:15;100446.80;;;25.55;31.54
63916;BME280;50094;51.356;-0.196;2022-10-16T08:55:48;100440.46;;;25.61;31.54
63916;BME280;50094;51.356;-0.196;2022-10-16T08:58:17;100444.91;;;25.78;31.59
63916;BME280;50094;51.356;-0.196;2022-10-16T09:00:47;100446.53;;;25.60;31.62
63916;BME280;50094;51.356;-0.196;2022-10-16T09:03:25;100448.39;;;25.67;31.53
63916;BME280;50094;51.356;-0.196;2022-10-16T09:06:10;100451.19;;;25.68;31.58
63916;BME280;50094;51.356;-0.196;2022-10-16T09:08:49;100459.08;;;25.67;31.63
63916;BME280;50094;51.356;-0.196;2022-10-16T09:11:27;100463.99;;;25.67;31.64
63916;BME280;50094;51.356;-0.196;2022-10-16T09:14:06;100466.69;;;25.94;31.59
63916;BME280;50094;51.356;-0.196;2022-10-16T09:16:38;100471.87;;;25.77;31.51
63916;BME280;50094;51.356;-0.196;2022-10-16T09:19:13;100474.81;;;25.71;31.64
63916;BME280;50094;51.356;-0.196;2022-10-16T09:21:45;100474.99;;;25.94;31.70
63916;BME280;50094;51.356;-0.196;2022-10-16T09:24:14;100471.38;;;25.68;31.76
63916;BME280;50094;51.356;-0.196;2022-10-16T09:26:43;100473.62;;;25.72;31.73
63916;BME280;50094;51.356;-0.196;2022-10-16T09:29:11;100475.97;;;25.94;31.74
63916;BME280;50094;51.356;-0.196;2022-10-16T09:31:41;100478.88;;;25.97;31.75
63916;BME280;50094;51.356;-0.196;2022-10-16T09:34:14;100481.50;;;25.97;31.70
63916;BME280;50094;51.356;-0.196;2022-10-16T09:36:46;100483.21;;;25.98;31.63
63916;BME280;50094;51.356;-0.196;2022-10-16T09:39:13;100485.50;;;25.73;31.69
63916;BME280;50094;51.356;-0.196;2022-10-16T09:41:42;100481.23;;;26.00;31.62
63916;BME280;50094;51.356;-0.196;2022-10-16T09:44:19;100480.97;;;25.80;31.66
63916;BME280;50094;51.356;-0.196;2022-10-16T09:46:48;100483.22;;;25.81;31.66
63916;BME280;50094;51.356;-0.196;2022-10-16T09:49:22;100490.91;;;25.80;31.59
63916;BME280;50094;51.356;-0.196;2022-10-16T09:51:50;100494.58;;;25.78;31.58
63916;BME280;50094;51.356;-0.196;2022-10-16T09:54:20;100497.26;;;25.72;31.65
63916;BME280;50094;51.356;-0.196;2022-10-16T09:56:48;100499.11;;;25.89;31.71
63916;BME280;50094;51.356;-0.196;2022-10-16T09:59:17;100502.99;;;25.92;31.70
63916;BME280;50094;51.356;-0.196;2022-10-16T10:01:46;100504.93;;;25.77;31.63
63916;BME280;50094;51.356;-0.196;2022-10-16T10:04:15;100508.81;;;25.78;31.62
63916;BME280;50094;51.356;-0.196;2022-10-16T10:06:44;100508.59;;;25.77;31.74
63916;BME280;50094;51.356;-0.196;2022-10-16T10:09:21;100511.33;;;25.79;31.85
63916;BME280;50094;51.356;-0.196;2022-10-16T10:11:52;100511.35;;;25.78;31.73
63916;BME280;50094;51.356;-0.196;2022-10-16T10:14:31;100510.64;;;25.72;31.81
63916;BME280;50094;51.356;-0.196;2022-10-16T10:17:17;100507.47;;;25.71;31.84
63916;BME280;50094;51.356;-0.196;2022-10-16T10:19:47;100514.96;;;25.94;31.86
63916;BME280;50094;51.356;-0.196;2022-10-16T10:22:25;100521.17;;;25.70;31.78
63916;BME280;50094;51.356;-0.196;2022-10-16T10:25:00;100516.91;;;25.89;31.76
63916;BME280;50094;51.356;-0.196;2022-10-16T10:27:39;100513.46;;;25.64;31.84
63916;BME280;50094;51.356;-0.196;2022-10-16T10:30:17;100512.96;;;25.66;31.78
63916;BME280;50094;51.356;-0.196;2022-10-16T10:32:54;100509.97;;;25.87;31.81
63916;BME280;50094;51.356;-0.196;2022-10-16T10:35:31;100507.27;;;25.65;31.88
63916;BME280;50094;51.356;-0.196;2022-10-16T10:38:17;100506.10;;;25.53;31.93
63916;BME280;50094;51.356;-0.196;2022-10-16T10:40:52;100506.63;;;25.81;31.81
63916;BME280;50094;51.356;-0.196;2022-10-16T10:43:35;100505.31;;;25.81;31.73
63916;BME280;50094;51.356;-0.196;2022-10-16T10:46:11;100504.75;;;26.02;31.76
63916;BME280;50094;51.356;-0.196;2022-10-16T10:48:59;100508.68;;;25.81;31.77
63916;BME280;50094;51.356;-0.196;2022-10-16T10:51:36;100504.97;;;25.82;31.71
63916;BME280;50094;51.356;-0.196;2022-10-16T10:54:14;100502.61;;;26.05;31.81
63916;BME280;50094;51.356;-0.196;2022-10-16T10:56:49;100507.58;;;25.80;31.95
63916;BME280;50094;51.356;-0.196;2022-10-16T10:59:48;100504.67;;;26.01;31.93
63916;BME280;50094;51.356;-0.196;2022-10-16T11:02:26;100496.91;;;25.84;31.87
63916;BME280;50094;51.356;-0.196;2022-10-16T11:05:27;100492.64;;;25.84;31.89
63916;BME280;50094;51.356;-0.196;2022-10-16T11:08:00;100490.23;;;25.85;31.83
63916;BME280;50094;51.356;-0.196;2022-10-16T11:10:29;100488.34;;;25.90;31.82
63916;BME280;50094;51.356;-0.196;2022-10-16T11:13:04;100490.57;;;26.12;31.99
63916;BME280;50094;51.356;-0.196;2022-10-16T11:15:38;100489.49;;;25.86;32.01
63916;BME280;50094;51.356;-0.196;2022-10-16T11:18:08;100494.32;;;25.81;32.02
63916;BME280;50094;51.356;-0.196;2022-10-16T11:20:42;100482.13;;;26.02;31.94
63916;BME280;50094;51.356;-0.196;2022-10-16T11:23:17;100481.01;;;25.58;31.94
63916;BME280;50094;51.356;-0.196;2022-10-16T11:25:47;100477.77;;;25.81;31.97
63916;BME280;50094;51.356;-0.196;2022-10-16T11:28:17;100482.15;;;25.86;31.98
63916;BME280;50094;51.356;-0.196;2022-10-16T11:30:49;100481.96;;;25.87;31.91
63916;BME280;50094;51.356;-0.196;2022-10-16T11:33:27;100480.30;;;25.86;31.95
63916;BME280;50094;51.356;-0.196;2022-10-16T11:36:01;100478.97;;;25.91;31.95
63916;BME280;50094;51.356;-0.196;2022-10-16T11:38:34;100480.31;;;25.62;31.88
63916;BME280;50094;51.356;-0.196;2022-10-16T11:41:12;100471.73;;;25.89;31.81
63916;BME280;50094;51.356;-0.196;2022-10-16T11:43:46;100479.19;;;25.85;31.81
63916;BME280;50094;51.356;-0.196;2022-10-16T11:46:19;100482.98;;;25.83;31.78
63916;BME280;50094;51.356;-0.196;2022-10-16T11:48:52;100483.30;;;26.00;31.81
63916;BME280;50094;51.356;-0.196;2022-10-16T11:51:26;100482.61;;;25.99;31.82
63916;BME280;50094;51.356;-0.196;2022-10-16T11:54:01;100475.44;;;25.77;31.78
63916;BME280;50094;51.356;-0.196;2022-10-16T11:56:30;100477.99;;;26.28;31.80
63916;BME280;50094;51.356;-0.196;2022-10-16T11:59:02;100480.95;;;25.83;31.75
63916;BME280;50094;51.356;-0.196;2022-10-16T12:01:33;100478.28;;;26.02;31.76
63916;BME280;50094;51.356;-0.196;2022-10-16T12:04:15;100476.66;;;25.78;31.80
63916;BME280;50094;51.356;-0.196;2022-10-16T12:06:49;100479.61;;;25.81;31.75
63916;BME280;50094;51.356;-0.196;2022-10-16T12:09:22;100480.60;;;25.81;31.71
63916;BME280;50094;51.356;-0.196;2022-10-16T12:11:51;100479.61;;;25.83;31.70
63916;BME280;50094;51.356;-0.196;2022-10-16T12:14:33;100477.13;;;25.85;31.69
63916;BME280;50094;51.356;-0.196;2022-10-16T12:17:03;100479.86;;;25.82;31.71
63916;BME280;50094;51.356;-0.196;2022-10-16T12:19:32;100474.14;;;26.06;31.71
63916;BME280;50094;51.356;-0.196;2022-10-16T12:22:00;100468.43;;;25.84;31.71
63916;BME280;50094;51.356;-0.196;2022-10-16T12:24:34;100463.33;;;25.83;31.69
63916;BME280;50094;51.356;-0.196;2022-10-16T12:27:04;100462.41;;;25.82;31.75
63916;BME280;50094;51.356;-0.196;2022-10-16T12:29:35;100463.10;;;25.83;31.75
63916;BME280;50094;51.356;-0.196;2022-10-16T12:32:04;100462.37;;;25.77;31.82
63916;BME280;50094;51.356;-0.196;2022-10-16T12:34:39;100455.86;;;25.78;31.81
63916;BME280;50094;51.356;-0.196;2022-10-16T12:37:10;100455.84;;;25.73;31.83
63916;BME280;50094;51.356;-0.196;2022-10-16T12:39:39;100458.18;;;25.57;31.76
63916;BME280;50094;51.356;-0.196;2022-10-16T12:42:20;100456.76;;;25.78;31.74
63916;BME280;50094;51.356;-0.196;2022-10-16T12:44:48;100454.91;;;26.01;31.73
63916;BME280;50094;51.356;-0.196;2022-10-16T12:47:34;100449.83;;;25.77;31.75
63916;BME280;50094;51.356;-0.196;2022-10-16T12:50:22;100457.78;;;25.56;31.70
63916;BME280;50094;51.356;-0.196;2022-10-16T12:52:50;100452.63;;;25.79;31.75
63916;BME280;50094;51.356;-0.196;2022-10-16T12:55:20;100448.07;;;25.82;31.73
63916;BME280;50094;51.356;-0.196;2022-10-16T12:58:00;100450.55;;;25.83;31.71